createdAt,value
2018-12-20T00:01:49.793Z,30.63
2018-12-20T00:05:53.296Z,30.97
2018-12-20T00:09:56.851Z,34.27
2018-12-20T00:14:00.378Z,32.03
2018-12-20T00:18:05.136Z,30.53
2018-12-20T00:22:09.006Z,31.17
2018-12-20T00:26:12.546Z,32.37
2018-12-20T00:30:16.010Z,27.23
2018-12-20T00:34:19.445Z,31.10
2018-12-20T00:38:22.953Z,32.33
2018-12-20T00:42:32.969Z,33.73
2018-12-20T00:46:36.407Z,29.80
2018-12-20T00:50:39.899Z,30.47
2018-12-20T00:54:43.479Z,35.83
2018-12-20T00:58:46.951Z,28.33
2018-12-20T01:02:55.195Z,32.57
2018-12-20T01:06:55.967Z,30.27
2018-12-20T01:10:59.480Z,29.80
2018-12-20T01:15:03.003Z,30.23
2018-12-20T01:19:06.550Z,31.53
2018-12-20T01:23:10.221Z,29.00
2018-12-20T01:27:13.751Z,32.70
2018-12-20T01:31:17.200Z,26.67
2018-12-20T01:35:20.667Z,24.77
2018-12-20T01:39:24.300Z,29.13
2018-12-20T01:43:27.964Z,27.10
2018-12-20T01:47:31.538Z,31.77
2018-12-20T01:51:35.259Z,24.70
2018-12-20T01:55:38.767Z,27.53
2018-12-20T01:59:42.327Z,29.70
2018-12-20T02:03:45.804Z,29.07
2018-12-20T02:07:49.380Z,25.93
2018-12-20T02:11:52.875Z,25.53
2018-12-20T02:15:56.452Z,28.57
2018-12-20T02:20:00.193Z,28.80
2018-12-20T02:24:04.522Z,32.43
2018-12-20T02:28:08.158Z,29.50
2018-12-20T02:32:11.883Z,27.67
2018-12-20T02:36:15.425Z,25.43
2018-12-20T02:40:19.030Z,27.47
2018-12-20T02:44:22.707Z,28.80
2018-12-20T02:48:26.359Z,30.50
2018-12-20T02:52:30.166Z,27.90
2018-12-20T02:56:33.894Z,28.70
2018-12-20T03:00:37.403Z,33.03
2018-12-20T03:04:40.983Z,28.37
2018-12-20T03:08:44.667Z,26.40
2018-12-20T03:12:48.641Z,31.23
2018-12-20T03:16:52.323Z,31.53
2018-12-20T03:20:55.895Z,29.50
2018-12-20T03:24:59.594Z,34.07
2018-12-20T03:29:03.277Z,33.97
2018-12-20T03:33:07.035Z,31.73
2018-12-20T03:37:12.340Z,33.20
2018-12-20T03:41:15.975Z,30.37
2018-12-20T03:45:19.794Z,37.60
2018-12-20T03:49:23.556Z,35.87
2018-12-20T03:53:27.198Z,36.87
2018-12-20T03:57:30.719Z,32.83
2018-12-20T04:01:34.261Z,32.40
2018-12-20T04:05:37.964Z,34.73
2018-12-20T04:09:41.502Z,34.57
2018-12-20T04:13:45.967Z,37.27
2018-12-20T04:17:49.465Z,31.10
2018-12-20T04:21:53.121Z,31.13
2018-12-20T04:25:57.013Z,37.43
2018-12-20T04:30:00.619Z,32.10
2018-12-20T04:34:04.657Z,38.27
2018-12-20T04:38:08.128Z,33.20
2018-12-20T04:42:11.533Z,37.83
2018-12-20T04:46:15.006Z,34.27
2018-12-20T04:50:18.548Z,35.07
2018-12-20T04:54:22.191Z,29.63
2018-12-20T04:58:25.781Z,35.80
2018-12-20T05:02:29.400Z,38.37
2018-12-20T05:06:32.876Z,34.10
2018-12-20T05:10:36.402Z,39.20
2018-12-20T05:14:39.998Z,34.07
2018-12-20T05:18:43.589Z,37.93
2018-12-20T05:22:47.154Z,40.90
2018-12-20T05:26:50.717Z,44.17
2018-12-20T05:30:54.328Z,35.67
2018-12-20T05:34:58.272Z,43.40
2018-12-20T05:39:01.737Z,39.90
2018-12-20T05:43:05.228Z,40.87
2018-12-20T05:47:08.943Z,39.43
2018-12-20T05:51:12.459Z,34.57
2018-12-20T05:55:16.002Z,39.00
2018-12-20T05:59:19.539Z,35.67
2018-12-20T06:03:23.100Z,38.73
2018-12-20T06:07:26.790Z,35.30
2018-12-20T06:11:30.390Z,33.23
2018-12-20T06:15:34.521Z,41.33
2018-12-20T06:19:38.154Z,37.63
2018-12-20T06:23:41.739Z,34.83
2018-12-20T06:27:45.202Z,40.47
2018-12-20T06:31:48.673Z,38.70
2018-12-20T06:35:52.131Z,40.33
2018-12-20T06:39:55.703Z,36.23
2018-12-20T06:44:07.012Z,35.40
2018-12-20T06:48:04.623Z,37.97
2018-12-20T06:52:08.119Z,39.67
2018-12-20T06:56:11.662Z,37.57
2018-12-20T07:00:15.097Z,36.33
2018-12-20T07:04:18.680Z,43.33
2018-12-20T07:08:22.179Z,41.70
2018-12-20T07:12:25.611Z,40.87
2018-12-20T07:16:29.607Z,42.97
2018-12-20T07:20:33.282Z,38.50
2018-12-20T07:24:37.105Z,38.67
2018-12-20T07:28:40.613Z,38.57
2018-12-20T07:32:44.068Z,36.67
2018-12-20T07:36:47.592Z,35.73
2018-12-20T07:40:51.124Z,43.43
2018-12-20T07:44:54.581Z,38.07
2018-12-20T07:48:58.094Z,36.13
2018-12-20T07:53:02.307Z,40.23
2018-12-20T07:57:05.809Z,40.50
2018-12-20T08:01:09.375Z,39.63
2018-12-20T08:05:12.822Z,37.20
2018-12-20T08:09:16.232Z,39.63
2018-12-20T08:13:19.790Z,35.83
2018-12-20T08:17:23.301Z,36.60
2018-12-20T08:21:26.775Z,42.07
2018-12-20T08:25:30.805Z,38.53
2018-12-20T08:29:35.145Z,34.83
2018-12-20T08:33:38.716Z,37.53
2018-12-20T08:37:42.747Z,35.10
2018-12-20T08:41:46.205Z,39.83
2018-12-20T08:45:49.655Z,38.37
2018-12-20T08:49:53.217Z,41.40
2018-12-20T08:53:56.871Z,37.97
2018-12-20T08:58:00.335Z,41.20
2018-12-20T09:02:03.783Z,37.37
2018-12-20T09:06:07.254Z,41.10
2018-12-20T09:10:10.811Z,41.60
2018-12-20T09:14:16.184Z,39.47
2018-12-20T09:18:19.940Z,41.57
2018-12-20T09:22:23.402Z,46.27
2018-12-20T09:26:26.948Z,41.37
2018-12-20T09:30:30.946Z,43.17
2018-12-20T09:34:34.428Z,42.60
2018-12-20T09:38:38.008Z,38.87
2018-12-20T09:42:41.486Z,37.83
2018-12-20T09:46:45.000Z,43.23
2018-12-20T09:50:48.477Z,44.30
2018-12-20T09:54:51.932Z,41.07
2018-12-20T09:58:55.524Z,40.87
2018-12-20T10:02:59.026Z,40.77
2018-12-20T10:07:02.517Z,44.93
2018-12-20T10:11:05.935Z,38.23
2018-12-20T10:15:09.485Z,44.80
2018-12-20T10:19:13.704Z,39.50
2018-12-20T10:23:17.238Z,41.37
2018-12-20T10:27:20.695Z,41.90
2018-12-20T10:31:24.165Z,43.13
2018-12-20T10:35:27.614Z,42.27
2018-12-20T10:39:31.239Z,43.83
2018-12-20T10:43:34.720Z,47.63
2018-12-20T10:47:38.128Z,40.07
2018-12-20T10:51:41.609Z,38.70
2018-12-20T10:55:45.151Z,37.70
2018-12-20T10:59:48.856Z,44.37
2018-12-20T11:03:56.558Z,39.37
2018-12-20T11:08:04.172Z,41.30
2018-12-20T11:12:08.655Z,43.57
2018-12-20T11:16:12.083Z,42.70
2018-12-20T11:20:15.546Z,37.30
2018-12-20T11:24:19.035Z,46.00
2018-12-20T11:28:22.540Z,38.40
2018-12-20T11:32:26.075Z,43.43
2018-12-20T11:36:29.554Z,39.83
2018-12-20T11:40:33.103Z,43.87
2018-12-20T11:44:36.853Z,48.17
2018-12-20T11:48:40.339Z,42.40
2018-12-20T11:52:43.798Z,40.73
2018-12-20T11:56:47.274Z,46.63
2018-12-20T12:00:50.735Z,46.20
2018-12-20T12:04:54.265Z,45.03
2018-12-20T12:08:57.884Z,48.57
2018-12-20T12:13:01.539Z,49.13
2018-12-20T12:17:05.198Z,37.27
2018-12-20T12:21:08.870Z,42.97
2018-12-20T12:25:12.581Z,45.80
2018-12-20T12:29:16.218Z,46.00
2018-12-20T12:33:19.812Z,46.53
2018-12-20T12:37:23.438Z,50.93
2018-12-20T12:41:27.151Z,47.30
2018-12-20T12:45:30.866Z,47.50
2018-12-20T12:49:34.675Z,51.93
2018-12-20T12:53:38.217Z,41.93
2018-12-20T12:57:41.669Z,46.60
2018-12-20T13:01:45.162Z,49.93
2018-12-20T13:05:48.750Z,54.17
2018-12-20T13:09:52.291Z,43.03
2018-12-20T13:13:55.829Z,40.20
2018-12-20T13:17:59.377Z,49.70
2018-12-20T13:22:04.084Z,50.03
2018-12-20T13:26:07.617Z,48.80
2018-12-20T13:30:12.432Z,49.33
2018-12-20T13:34:15.915Z,43.73
2018-12-20T13:38:19.348Z,46.83
2018-12-20T13:42:22.793Z,47.77
2018-12-20T13:46:26.244Z,49.80
2018-12-20T13:50:29.704Z,49.80
2018-12-20T13:54:33.237Z,49.03
2018-12-20T13:58:37.787Z,49.37
2018-12-20T14:02:41.373Z,50.40
2018-12-20T14:06:44.934Z,47.87
2018-12-20T14:10:48.433Z,44.17
2018-12-20T14:14:51.948Z,49.90
2018-12-20T14:18:55.439Z,55.20
2018-12-20T14:22:58.888Z,48.27
2018-12-20T14:27:02.347Z,51.97
2018-12-20T14:31:05.813Z,56.10
2018-12-20T14:35:09.493Z,47.40
2018-12-20T14:39:12.981Z,49.23
2018-12-20T14:43:16.710Z,46.83
2018-12-20T14:47:20.324Z,49.43
2018-12-20T14:51:23.824Z,48.80
2018-12-20T14:55:27.266Z,41.23
2018-12-20T14:59:32.409Z,47.50
2018-12-20T15:03:36.161Z,47.70
2018-12-20T15:07:39.747Z,51.10
2018-12-20T15:11:43.268Z,52.37
2018-12-20T15:15:46.741Z,49.43
2018-12-20T15:19:50.543Z,50.53
2018-12-20T15:23:54.621Z,51.67
2018-12-20T15:27:58.352Z,55.90
2018-12-20T15:32:01.822Z,49.17
2018-12-20T15:36:05.405Z,53.43
2018-12-20T15:40:09.637Z,48.00
2018-12-20T15:44:13.108Z,57.23
2018-12-20T15:48:17.002Z,54.90
2018-12-20T15:52:20.760Z,53.30
2018-12-20T15:56:24.324Z,57.23
2018-12-20T16:00:27.771Z,51.27
2018-12-20T16:04:31.249Z,49.23
2018-12-20T16:08:34.782Z,51.20
2018-12-20T16:12:38.352Z,54.80
2018-12-20T16:16:42.055Z,55.40
2018-12-20T16:20:45.815Z,48.70
2018-12-20T16:24:49.294Z,56.37
2018-12-20T16:28:53.057Z,61.37
2018-12-20T16:32:56.532Z,60.47
2018-12-20T16:36:59.947Z,59.27
2018-12-20T16:41:04.521Z,62.00
2018-12-20T16:45:08.767Z,65.43
2018-12-20T16:49:13.766Z,57.80
2018-12-20T16:53:17.632Z,56.63
2018-12-20T16:57:21.129Z,56.00
2018-12-20T17:01:24.735Z,61.80
2018-12-20T17:05:28.553Z,59.17
2018-12-20T17:09:32.068Z,56.77
2018-12-20T17:13:35.777Z,63.67
2018-12-20T17:17:39.686Z,63.47
2018-12-20T17:21:43.614Z,59.83
2018-12-20T17:25:47.083Z,63.63
2018-12-20T17:29:50.548Z,55.83
2018-12-20T17:33:54.163Z,61.40
2018-12-20T17:37:57.612Z,59.17
2018-12-20T17:42:01.087Z,62.30
2018-12-20T17:46:04.596Z,55.03
2018-12-20T17:50:08.736Z,57.77
2018-12-20T17:54:12.264Z,55.00
2018-12-20T17:58:18.838Z,63.47
2018-12-20T18:02:22.992Z,62.07
2018-12-20T18:06:26.701Z,61.10
2018-12-20T18:10:30.367Z,61.67
2018-12-20T18:14:34.566Z,56.23
2018-12-20T18:18:38.101Z,64.47
2018-12-20T18:22:41.585Z,60.17
2018-12-20T18:26:45.290Z,59.13
2018-12-20T18:30:49.193Z,62.37
2018-12-20T18:34:52.636Z,55.80
2018-12-20T18:38:56.462Z,64.97
2018-12-20T18:43:01.767Z,57.93
2018-12-20T18:47:05.609Z,65.27
2018-12-20T18:51:09.109Z,65.47
2018-12-20T18:55:12.626Z,66.17
2018-12-20T18:59:16.229Z,63.83
2018-12-20T19:03:19.835Z,56.93
2018-12-20T19:07:23.512Z,57.90
2018-12-20T19:11:27.003Z,57.63
2018-12-20T19:15:30.468Z,53.13
2018-12-20T19:19:34.148Z,55.77
2018-12-20T19:23:37.619Z,59.70
2018-12-20T19:27:41.272Z,53.43
2018-12-20T19:31:44.961Z,53.30
2018-12-20T19:35:48.474Z,62.33
2018-12-20T19:39:56.326Z,58.03
2018-12-20T19:44:00.064Z,66.83
2018-12-20T19:48:03.721Z,53.53
2018-12-20T19:52:07.284Z,61.93
2018-12-20T19:56:10.785Z,59.30
2018-12-20T20:00:16.248Z,54.50
2018-12-20T20:04:19.759Z,61.87
2018-12-20T20:08:23.328Z,64.13
2018-12-20T20:12:26.799Z,62.73
2018-12-20T20:16:30.305Z,61.80
2018-12-20T20:20:33.911Z,60.03
2018-12-20T20:24:37.392Z,59.87
2018-12-20T20:28:40.839Z,64.43
2018-12-20T20:32:44.378Z,59.00
2018-12-20T20:36:48.065Z,64.03
2018-12-20T20:40:51.745Z,57.33
2018-12-20T20:44:55.253Z,57.03
2018-12-20T20:48:58.832Z,64.33
2018-12-20T20:53:02.397Z,58.50
2018-12-20T20:57:05.940Z,60.33
2018-12-20T21:01:09.493Z,62.67
2018-12-20T21:05:13.326Z,65.53
2018-12-20T21:09:16.872Z,65.40
2018-12-20T21:13:20.350Z,65.83
2018-12-20T21:17:23.958Z,64.27
2018-12-20T21:21:27.716Z,62.57
2018-12-20T21:25:31.335Z,65.83
2018-12-20T21:29:35.123Z,65.47
2018-12-20T21:33:38.999Z,69.20
2018-12-20T21:37:42.433Z,70.40
2018-12-20T21:41:45.940Z,61.57
2018-12-20T21:45:49.425Z,56.07
2018-12-20T21:49:52.856Z,65.07
2018-12-20T21:53:56.371Z,67.63
2018-12-20T21:57:59.848Z,63.80
2018-12-20T22:02:03.709Z,63.50
2018-12-20T22:06:07.265Z,64.17
2018-12-20T22:10:10.772Z,59.53
2018-12-20T22:14:14.265Z,66.00
2018-12-20T22:18:17.788Z,66.97
2018-12-20T22:22:21.574Z,61.20
2018-12-20T22:26:25.165Z,67.10
2018-12-20T22:30:28.720Z,69.53
2018-12-20T22:34:32.230Z,59.33
2018-12-20T22:38:35.913Z,64.23
2018-12-20T22:42:39.772Z,67.67
2018-12-20T22:46:43.296Z,61.73
2018-12-20T22:50:46.807Z,69.83
2018-12-20T22:54:50.279Z,66.57
2018-12-20T22:58:53.791Z,71.73
2018-12-20T23:02:57.303Z,69.13
2018-12-20T23:07:00.818Z,68.60
2018-12-20T23:11:04.340Z,68.17
2018-12-20T23:15:07.873Z,72.63
2018-12-20T23:19:11.344Z,70.23
2018-12-20T23:23:14.820Z,70.83
2018-12-20T23:27:18.329Z,74.50
2018-12-20T23:31:21.796Z,68.10
2018-12-20T23:35:25.365Z,72.70
2018-12-20T23:39:28.960Z,73.77
2018-12-20T23:43:32.502Z,79.07
2018-12-20T23:47:36.111Z,73.50
2018-12-20T23:51:45.271Z,72.17
2018-12-20T23:55:45.747Z,73.20
2018-12-20T23:59:49.286Z,72.03
